Vremea acum in Luduș - Romania

Vrei sa afli care e starea vremii acum in Mures - Romania? Dorim sa iti furnizam starea vremii pentru Mures - Romania. Starea vremii Mures - Romania pentru astazi.

Vremea acum in Luduș

Temperatura: 11.3 °C

Este: Senin
Se simte ca: 10.9 °C
Innorat: 0 %
Precipitatii: 0 %
Presiune atmosferica: 1016 hPa
Umiditate: 62%
Vizibilitate: 10 km
Vantul bate din W cu 6.1 km/h

Evolutia vremii in Luduș pe ore

Ora: 04:00
Senin
Temperatura: 9.1°C
Sansa de precipitatii: 0%
Ora Descriere Temp Se simte Precipitatii Umiditate Vant
00:00Senin10.7°10.1°0%74%W 6.8 KM/H
01:00Senin11.3°9.8°0%62%W 6.1 KM/H
02:00Senin10°9.6°0%75%W 5.4 KM/H
03:00Senin9.6°9.5°0%76%W 4.3 KM/H
04:00Senin9.1°9.1°0%78%WSW 2.9 KM/H
05:00Senin8.7°8.7°0%79%WSW 2.2 KM/H
06:00Senin8.3°8.3°0%80%WSW 1.4 KM/H
07:00Senin9.2°9.2°0%78%SSW 1.4 KM/H
08:00Senin12.6°12.6°0%72%SSE 2.2 KM/H
09:00Senin14.7°15.2°0%67%SE 4.3 KM/H
10:00Senin16.5°16.5°0%63%SE 5.8 KM/H
11:00Senin18.2°18.2°0%58%SE 7.6 KM/H
12:00Senin19.7°19.8°0%54%SSE 8.6 KM/H
13:00Senin21°21°0%49%SSE 9 KM/H
14:00Senin22.1°24.2°0%44%SSE 9 KM/H
15:00Senin22.8°24.3°0%41%SE 9.7 KM/H
16:00Senin23.1°24.2°0%38%SE 10.1 KM/H
17:00Senin23°24.2°0%36%SE 9.7 KM/H
18:00Senin22.8°24.2°0%39%SE 7.6 KM/H
19:00Senin21.7°21.7°0%51%SE 5 KM/H
20:00Senin17.5°17.5°0%54%SSE 3.6 KM/H
21:00Senin15.1°15.1°0%55%SSW 4.3 KM/H
22:00Senin14°14.6°0%58%SW 4 KM/H
23:00Senin13.1°13.5°0%61%W 4.3 KM/H




tutorials